sensor_id;sensor_type;location;lat;lon;timestamp;pressure;altitude;pressure_sealevel;temperature;humidity
72855;BME280;60991;51.278;22.550;2023-04-30T00:01:08;98928.72;;;12.72;44.74
72855;BME280;60991;51.278;22.550;2023-04-30T00:02:39;98932.69;;;12.65;44.62
72855;BME280;60991;51.278;22.550;2023-04-30T00:04:09;98921.50;;;12.63;44.84
72855;BME280;60991;51.278;22.550;2023-04-30T00:05:39;98920.44;;;12.59;45.06
72855;BME280;60991;51.278;22.550;2023-04-30T00:07:09;98926.28;;;12.56;45.18
72855;BME280;60991;51.278;22.550;2023-04-30T00:08:40;98925.19;;;12.52;44.76
72855;BME280;60991;51.278;22.550;2023-04-30T00:10:10;98920.34;;;12.43;44.99
72855;BME280;60991;51.278;22.550;2023-04-30T00:11:40;98928.84;;;12.35;45.61
72855;BME280;60991;51.278;22.550;2023-04-30T00:13:10;98928.59;;;12.37;45.52
72855;BME280;60991;51.278;22.550;2023-04-30T00:14:40;98924.31;;;12.31;45.74
72855;BME280;60991;51.278;22.550;2023-04-30T00:16:11;98928.03;;;12.30;46.04
72855;BME280;60991;51.278;22.550;2023-04-30T00:17:41;98925.88;;;12.22;46.28
72855;BME280;60991;51.278;22.550;2023-04-30T00:19:11;98926.69;;;12.22;46.29
72855;BME280;60991;51.278;22.550;2023-04-30T00:20:41;98926.16;;;12.30;46.04
72855;BME280;60991;51.278;22.550;2023-04-30T00:22:12;98925.09;;;12.31;45.78
72855;BME280;60991;51.278;22.550;2023-04-30T00:23:42;98929.63;;;12.31;45.89
72855;BME280;60991;51.278;22.550;2023-04-30T00:25:12;98924.56;;;12.29;45.89
72855;BME280;60991;51.278;22.550;2023-04-30T00:26:42;98923.03;;;12.38;45.95
72855;BME280;60991;51.278;22.550;2023-04-30T00:28:12;98921.97;;;12.44;45.73
72855;BME280;60991;51.278;22.550;2023-04-30T00:29:43;98933.69;;;12.48;46.01
72855;BME280;60991;51.278;22.550;2023-04-30T00:31:13;98932.13;;;12.53;45.52
72855;BME280;60991;51.278;22.550;2023-04-30T00:32:43;98938.25;;;12.53;45.60
72855;BME280;60991;51.278;22.550;2023-04-30T00:34:13;98929.47;;;12.53;45.58
72855;BME280;60991;51.278;22.550;2023-04-30T00:35:43;98931.28;;;12.47;45.81
72855;BME280;60991;51.278;22.550;2023-04-30T00:37:14;98929.94;;;12.44;45.82
72855;BME280;60991;51.278;22.550;2023-04-30T00:38:44;98934.47;;;12.39;45.92
72855;BME280;60991;51.278;22.550;2023-04-30T00:40:14;98928.06;;;12.35;45.88
72855;BME280;60991;51.278;22.550;2023-04-30T00:41:45;98932.84;;;12.33;45.64
72855;BME280;60991;51.278;22.550;2023-04-30T00:43:15;98929.63;;;12.31;45.77
72855;BME280;60991;51.278;22.550;2023-04-30T00:44:45;98933.09;;;12.31;45.93
72855;BME280;60991;51.278;22.550;2023-04-30T00:46:15;98930.19;;;12.33;45.95
72855;BME280;60991;51.278;22.550;2023-04-30T00:47:45;98926.47;;;12.34;45.99
72855;BME280;60991;51.278;22.550;2023-04-30T00:49:16;98927.00;;;12.36;46.14
72855;BME280;60991;51.278;22.550;2023-04-30T00:50:46;98924.59;;;12.34;46.12
72855;BME280;60991;51.278;22.550;2023-04-30T00:52:16;98926.97;;;12.31;45.82
72855;BME280;60991;51.278;22.550;2023-04-30T00:53:47;98930.44;;;12.31;46.13
72855;BME280;60991;51.278;22.550;2023-04-30T00:55:17;98925.91;;;12.32;45.93
72855;BME280;60991;51.278;22.550;2023-04-30T00:56:47;98931.22;;;12.32;45.71
72855;BME280;60991;51.278;22.550;2023-04-30T00:58:18;98933.91;;;12.32;45.76
72855;BME280;60991;51.278;22.550;2023-04-30T00:59:49;98933.63;;;12.33;45.93
72855;BME280;60991;51.278;22.550;2023-04-30T01:01:19;98928.06;;;12.35;45.50
72855;BME280;60991;51.278;22.550;2023-04-30T01:02:49;98930.72;;;12.35;45.77
72855;BME280;60991;51.278;22.550;2023-04-30T01:04:20;98927.47;;;12.28;45.74
72855;BME280;60991;51.278;22.550;2023-04-30T01:05:50;98931.19;;;12.27;45.40
72855;BME280;60991;51.278;22.550;2023-04-30T01:07:20;98930.13;;;12.23;45.64
72855;BME280;60991;51.278;22.550;2023-04-30T01:08:50;98929.06;;;12.19;45.69
72855;BME280;60991;51.278;22.550;2023-04-30T01:10:25;98925.31;;;12.14;45.69
72855;BME280;60991;51.278;22.550;2023-04-30T01:12:52;98928.47;;;12.11;45.67
72855;BME280;60991;51.278;22.550;2023-04-30T01:14:27;98928.72;;;12.10;46.01
72855;BME280;60991;51.278;22.550;2023-04-30T01:16:13;98925.81;;;12.11;46.03
72855;BME280;60991;51.278;22.550;2023-04-30T01:19:24;98922.34;;;12.06;45.75
72855;BME280;60991;51.278;22.550;2023-04-30T01:20:06;98928.19;;;12.08;45.97
72855;BME280;60991;51.278;22.550;2023-04-30T01:21:38;98920.47;;;12.06;45.73
72855;BME280;60991;51.278;22.550;2023-04-30T01:23:27;98927.66;;;12.06;46.27
72855;BME280;60991;51.278;22.550;2023-04-30T01:27:06;98922.09;;;12.12;45.70
72855;BME280;60991;51.278;22.550;2023-04-30T01:28:43;98921.31;;;12.17;45.87
72855;BME280;60991;51.278;22.550;2023-04-30T01:30:16;98924.28;;;12.21;45.78
72855;BME280;60991;51.278;22.550;2023-04-30T01:31:47;98930.41;;;12.21;45.82
72855;BME280;60991;51.278;22.550;2023-04-30T01:33:17;98915.22;;;12.22;45.72
72855;BME280;60991;51.278;22.550;2023-04-30T01:34:47;98914.44;;;12.26;45.88
72855;BME280;60991;51.278;22.550;2023-04-30T01:40:11;98916.13;;;12.42;45.18
72855;BME280;60991;51.278;22.550;2023-04-30T01:45:26;98917.09;;;12.26;45.52
72855;BME280;60991;51.278;22.550;2023-04-30T01:47:06;98918.19;;;12.30;45.57
72855;BME280;60991;51.278;22.550;2023-04-30T01:49:03;98920.56;;;12.27;45.34
72855;BME280;60991;51.278;22.550;2023-04-30T01:50:42;98918.94;;;12.26;45.48
72855;BME280;60991;51.278;22.550;2023-04-30T01:52:31;98918.44;;;12.29;45.98
72855;BME280;60991;51.278;22.550;2023-04-30T01:54:15;98912.34;;;12.33;45.51
72855;BME280;60991;51.278;22.550;2023-04-30T01:55:54;98921.16;;;12.39;45.15
72855;BME280;60991;51.278;22.550;2023-04-30T01:57:42;98915.03;;;12.43;44.88
72855;BME280;60991;51.278;22.550;2023-04-30T01:59:13;98915.56;;;12.35;45.31
72855;BME280;60991;51.278;22.550;2023-04-30T02:00:44;98916.59;;;12.29;45.57
72855;BME280;60991;51.278;22.550;2023-04-30T02:02:14;98917.66;;;12.33;45.48
72855;BME280;60991;51.278;22.550;2023-04-30T02:03:44;98915.56;;;12.40;45.35
72855;BME280;60991;51.278;22.550;2023-04-30T02:05:15;98923.56;;;12.45;45.53
72855;BME280;60991;51.278;22.550;2023-04-30T02:06:45;98923.03;;;12.48;45.38
72855;BME280;60991;51.278;22.550;2023-04-30T02:08:15;98922.53;;;12.52;45.27
72855;BME280;60991;51.278;22.550;2023-04-30T02:09:45;98921.72;;;12.51;45.00
72855;BME280;60991;51.278;22.550;2023-04-30T02:11:15;98924.13;;;12.53;45.10
72855;BME280;60991;51.278;22.550;2023-04-30T02:12:46;98923.59;;;12.51;44.72
72855;BME280;60991;51.278;22.550;2023-04-30T02:14:16;98923.03;;;12.48;44.91
72855;BME280;60991;51.278;22.550;2023-04-30T02:15:46;98925.72;;;12.48;45.35
72855;BME280;60991;51.278;22.550;2023-04-30T02:17:16;98922.25;;;12.48;44.78
72855;BME280;60991;51.278;22.550;2023-04-30T02:18:46;98924.09;;;12.47;45.27
72855;BME280;60991;51.278;22.550;2023-04-30T02:20:17;98925.69;;;12.43;45.69
72855;BME280;60991;51.278;22.550;2023-04-30T02:21:47;98929.16;;;12.44;45.70
72855;BME280;60991;51.278;22.550;2023-04-30T02:23:17;98935.00;;;12.46;45.37
72855;BME280;60991;51.278;22.550;2023-04-30T02:24:47;98933.97;;;12.47;45.55
72855;BME280;60991;51.278;22.550;2023-04-30T02:26:18;98931.28;;;12.47;45.40
72855;BME280;60991;51.278;22.550;2023-04-30T02:27:48;98928.09;;;12.45;45.25
72855;BME280;60991;51.278;22.550;2023-04-30T02:29:18;98925.16;;;12.41;45.16
72855;BME280;60991;51.278;22.550;2023-04-30T02:30:48;98927.84;;;12.41;45.57
72855;BME280;60991;51.278;22.550;2023-04-30T02:32:18;98929.91;;;12.34;45.55
72855;BME280;60991;51.278;22.550;2023-04-30T02:33:49;98921.63;;;12.26;45.38
72855;BME280;60991;51.278;22.550;2023-04-30T02:35:19;98923.22;;;12.27;45.62
72855;BME280;60991;51.278;22.550;2023-04-30T02:36:49;98929.81;;;12.14;45.88
72855;BME280;60991;51.278;22.550;2023-04-30T02:38:20;98938.59;;;12.14;46.22
72855;BME280;60991;51.278;22.550;2023-04-30T02:39:50;98922.94;;;12.18;46.30
72855;BME280;60991;51.278;22.550;2023-04-30T02:41:20;98930.91;;;12.18;46.14
72855;BME280;60991;51.278;22.550;2023-04-30T02:42:51;98928.50;;;12.17;46.13
72855;BME280;60991;51.278;22.550;2023-04-30T02:44:21;98925.06;;;12.21;45.73
72855;BME280;60991;51.278;22.550;2023-04-30T02:45:51;98935.13;;;12.14;46.10
72855;BME280;60991;51.278;22.550;2023-04-30T02:47:21;98919.19;;;12.14;46.52
72855;BME280;60991;51.278;22.550;2023-04-30T02:48:52;98924.03;;;12.22;46.27
72855;BME280;60991;51.278;22.550;2023-04-30T02:50:22;98922.72;;;12.30;46.43
72855;BME280;60991;51.278;22.550;2023-04-30T02:51:52;98932.59;;;12.34;46.33
72855;BME280;60991;51.278;22.550;2023-04-30T02:53:23;98924.63;;;12.39;46.69
72855;BME280;60991;51.278;22.550;2023-04-30T02:54:53;98924.38;;;12.46;45.99
72855;BME280;60991;51.278;22.550;2023-04-30T02:56:23;98928.38;;;12.48;46.10
72855;BME280;60991;51.278;22.550;2023-04-30T02:57:53;98929.19;;;12.49;45.93
72855;BME280;60991;51.278;22.550;2023-04-30T02:59:23;98926.25;;;12.51;45.79
72855;BME280;60991;51.278;22.550;2023-04-30T03:00:54;98930.22;;;12.48;45.59
72855;BME280;60991;51.278;22.550;2023-04-30T03:02:24;98928.09;;;12.45;46.08
72855;BME280;60991;51.278;22.550;2023-04-30T03:03:54;98923.31;;;12.42;45.93
72855;BME280;60991;51.278;22.550;2023-04-30T03:05:24;98932.06;;;12.37;46.36
72855;BME280;60991;51.278;22.550;2023-04-30T03:06:55;98927.25;;;12.34;46.43
72855;BME280;60991;51.278;22.550;2023-04-30T03:08:25;98925.66;;;12.33;46.00
72855;BME280;60991;51.278;22.550;2023-04-30T03:09:55;98923.50;;;12.30;46.08
72855;BME280;60991;51.278;22.550;2023-04-30T03:11:26;98931.22;;;12.32;46.34
72855;BME280;60991;51.278;22.550;2023-04-30T03:12:56;98930.97;;;12.33;46.07
72855;BME280;60991;51.278;22.550;2023-04-30T03:14:26;98931.53;;;12.35;46.57
72855;BME280;60991;51.278;22.550;2023-04-30T03:16:00;98924.84;;;12.33;46.74
72855;BME280;60991;51.278;22.550;2023-04-30T03:17:31;98931.78;;;12.34;46.27
72855;BME280;60991;51.278;22.550;2023-04-30T03:19:01;98935.78;;;12.36;46.16
72855;BME280;60991;51.278;22.550;2023-04-30T03:20:31;98933.38;;;12.35;46.40
72855;BME280;60991;51.278;22.550;2023-04-30T03:22:01;98935.22;;;12.29;46.43
72855;BME280;60991;51.278;22.550;2023-04-30T03:23:32;98935.75;;;12.31;46.71
72855;BME280;60991;51.278;22.550;2023-04-30T03:25:02;98937.91;;;12.34;46.85
72855;BME280;60991;51.278;22.550;2023-04-30T03:26:32;98936.59;;;12.37;46.12
72855;BME280;60991;51.278;22.550;2023-04-30T03:28:03;98935.78;;;12.36;46.44
72855;BME280;60991;51.278;22.550;2023-04-30T03:29:33;98936.84;;;12.35;46.58
72855;BME280;60991;51.278;22.550;2023-04-30T03:31:03;98936.31;;;12.33;46.60
72855;BME280;60991;51.278;22.550;2023-04-30T03:32:33;98938.69;;;12.35;46.41
72855;BME280;60991;51.278;22.550;2023-04-30T03:34:04;98938.69;;;12.35;46.65
72855;BME280;60991;51.278;22.550;2023-04-30T03:35:34;98937.66;;;12.36;46.61
72855;BME280;60991;51.278;22.550;2023-04-30T03:37:04;98935.78;;;12.36;46.56
72855;BME280;60991;51.278;22.550;2023-04-30T03:38:34;98939.25;;;12.37;46.82
72855;BME280;60991;51.278;22.550;2023-04-30T03:40:05;98943.50;;;12.38;46.33
72855;BME280;60991;51.278;22.550;2023-04-30T03:41:35;98940.84;;;12.38;46.80
72855;BME280;60991;51.278;22.550;2023-04-30T03:43:05;98942.19;;;12.40;46.69
72855;BME280;60991;51.278;22.550;2023-04-30T03:44:36;98943.00;;;12.41;46.85
72855;BME280;60991;51.278;22.550;2023-04-30T03:46:06;98942.19;;;12.40;47.03
72855;BME280;60991;51.278;22.550;2023-04-30T03:47:36;98947.78;;;12.44;46.95
72855;BME280;60991;51.278;22.550;2023-04-30T03:49:06;98946.22;;;12.43;46.59
72855;BME280;60991;51.278;22.550;2023-04-30T03:50:37;98951.53;;;12.43;46.99
72855;BME280;60991;51.278;22.550;2023-04-30T03:52:07;98941.66;;;12.38;46.96
72855;BME280;60991;51.278;22.550;2023-04-30T03:53:37;98947.72;;;12.29;47.29
72855;BME280;60991;51.278;22.550;2023-04-30T03:55:08;98953.09;;;12.39;47.04
72855;BME280;60991;51.278;22.550;2023-04-30T03:56:38;98957.63;;;12.38;47.57
72855;BME280;60991;51.278;22.550;2023-04-30T03:58:08;98954.72;;;12.45;47.08
72855;BME280;60991;51.278;22.550;2023-04-30T03:59:39;98953.41;;;12.53;47.27
72855;BME280;60991;51.278;22.550;2023-04-30T04:01:09;98955.81;;;12.54;47.00
72855;BME280;60991;51.278;22.550;2023-04-30T04:02:40;98958.75;;;12.53;47.40
72855;BME280;60991;51.278;22.550;2023-04-30T04:04:10;98954.78;;;12.60;47.04
72855;BME280;60991;51.278;22.550;2023-04-30T04:05:40;98957.44;;;12.65;47.35
72855;BME280;60991;51.278;22.550;2023-04-30T04:07:11;98953.22;;;12.69;47.01
72855;BME280;60991;51.278;22.550;2023-04-30T04:08:41;98960.41;;;12.69;47.05
72855;BME280;60991;51.278;22.550;2023-04-30T04:10:11;98961.19;;;12.69;47.34
72855;BME280;60991;51.278;22.550;2023-04-30T04:11:41;98958.81;;;12.73;47.00
72855;BME280;60991;51.278;22.550;2023-04-30T04:13:11;98956.16;;;12.73;46.86
72855;BME280;60991;51.278;22.550;2023-04-30T04:14:42;98952.16;;;12.70;46.86
72855;BME280;60991;51.278;22.550;2023-04-30T04:16:12;98953.72;;;12.66;46.44
72855;BME280;60991;51.278;22.550;2023-04-30T04:17:42;98953.72;;;12.61;46.81
72855;BME280;60991;51.278;22.550;2023-04-30T04:19:12;98951.59;;;12.58;47.20
72855;BME280;60991;51.278;22.550;2023-04-30T04:20:43;98950.75;;;12.53;46.96
72855;BME280;60991;51.278;22.550;2023-04-30T04:22:13;98961.38;;;12.47;46.82
72855;BME280;60991;51.278;22.550;2023-04-30T04:23:43;98959.19;;;12.34;47.40
72855;BME280;60991;51.278;22.550;2023-04-30T04:25:13;98957.09;;;12.36;47.76
72855;BME280;60991;51.278;22.550;2023-04-30T04:26:44;98958.63;;;12.27;47.46
72855;BME280;60991;51.278;22.550;2023-04-30T04:28:15;98958.63;;;12.22;48.21
72855;BME280;60991;51.278;22.550;2023-04-30T04:29:45;98964.19;;;12.21;47.79
72855;BME280;60991;51.278;22.550;2023-04-30T04:31:15;98963.13;;;12.22;47.86
72855;BME280;60991;51.278;22.550;2023-04-30T04:32:45;98958.34;;;12.24;48.04
72855;BME280;60991;51.278;22.550;2023-04-30T04:34:16;98963.69;;;12.29;48.36
72855;BME280;60991;51.278;22.550;2023-04-30T04:35:46;98962.38;;;12.31;47.92
72855;BME280;60991;51.278;22.550;2023-04-30T04:37:16;98973.22;;;12.25;48.45
72855;BME280;60991;51.278;22.550;2023-04-30T04:38:47;98965.00;;;12.26;48.81
72855;BME280;60991;51.278;22.550;2023-04-30T04:40:17;98969.00;;;12.29;48.64
72855;BME280;60991;51.278;22.550;2023-04-30T04:41:47;98967.19;;;12.34;48.73
72855;BME280;60991;51.278;22.550;2023-04-30T04:43:17;98975.91;;;12.25;48.80
72855;BME280;60991;51.278;22.550;2023-04-30T04:44:48;98977.00;;;12.29;49.23
72855;BME280;60991;51.278;22.550;2023-04-30T04:46:18;98974.59;;;12.27;49.08
72855;BME280;60991;51.278;22.550;2023-04-30T04:47:48;98981.50;;;12.28;48.77
72855;BME280;60991;51.278;22.550;2023-04-30T04:49:19;98990.03;;;12.30;49.26
72855;BME280;60991;51.278;22.550;2023-04-30T04:50:49;98990.34;;;12.34;49.10
72855;BME280;60991;51.278;22.550;2023-04-30T04:52:19;98993.47;;;12.26;49.90
72855;BME280;60991;51.278;22.550;2023-04-30T04:53:49;98983.66;;;12.31;49.68
72855;BME280;60991;51.278;22.550;2023-04-30T04:55:19;98983.91;;;12.30;49.50
72855;BME280;60991;51.278;22.550;2023-04-30T04:56:50;98988.44;;;12.29;49.27
72855;BME280;60991;51.278;22.550;2023-04-30T04:58:20;98995.06;;;12.27;49.39
72855;BME280;60991;51.278;22.550;2023-04-30T04:59:50;98991.66;;;12.31;49.73
72855;BME280;60991;51.278;22.550;2023-04-30T05:01:20;99006.31;;;12.34;49.33
72855;BME280;60991;51.278;22.550;2023-04-30T05:02:50;98994.88;;;12.38;49.55
72855;BME280;60991;51.278;22.550;2023-04-30T05:04:21;98994.38;;;12.41;49.39
72855;BME280;60991;51.278;22.550;2023-04-30T05:05:51;98993.84;;;12.39;49.40
72855;BME280;60991;51.278;22.550;2023-04-30T05:07:21;99001.56;;;12.46;49.22
72855;BME280;60991;51.278;22.550;2023-04-30T05:08:51;99001.31;;;12.42;49.53
72855;BME280;60991;51.278;22.550;2023-04-30T05:10:22;99004.25;;;12.51;49.54
72855;BME280;60991;51.278;22.550;2023-04-30T05:11:52;99002.19;;;12.58;49.58
72855;BME280;60991;51.278;22.550;2023-04-30T05:13:22;99005.09;;;12.62;49.88
72855;BME280;60991;51.278;22.550;2023-04-30T05:14:52;99005.34;;;12.55;50.16
72855;BME280;60991;51.278;22.550;2023-04-30T05:16:22;99002.19;;;12.58;50.18
72855;BME280;60991;51.278;22.550;2023-04-30T05:17:53;99008.03;;;12.60;50.47
72855;BME280;60991;51.278;22.550;2023-04-30T05:19:23;99002.38;;;12.46;50.79
72855;BME280;60991;51.278;22.550;2023-04-30T05:20:53;99003.22;;;12.57;50.60
72855;BME280;60991;51.278;22.550;2023-04-30T05:22:23;99008.00;;;12.55;50.62
72855;BME280;60991;51.278;22.550;2023-04-30T05:23:54;99013.84;;;12.52;51.07
72855;BME280;60991;51.278;22.550;2023-04-30T05:25:24;99006.69;;;12.58;50.91
72855;BME280;60991;51.278;22.550;2023-04-30T05:26:54;99001.31;;;12.47;51.34
72855;BME280;60991;51.278;22.550;2023-04-30T05:28:25;99009.28;;;12.42;51.73
72855;BME280;60991;51.278;22.550;2023-04-30T05:29:55;99010.88;;;12.43;52.21
72855;BME280;60991;51.278;22.550;2023-04-30T05:31:25;99008.75;;;12.45;51.98
72855;BME280;60991;51.278;22.550;2023-04-30T05:32:56;99008.78;;;12.51;52.15
72855;BME280;60991;51.278;22.550;2023-04-30T05:34:26;99014.94;;;12.56;51.67
72855;BME280;60991;51.278;22.550;2023-04-30T05:35:57;99011.19;;;12.52;52.00
72855;BME280;60991;51.278;22.550;2023-04-30T05:37:27;99008.31;;;12.59;52.42
72855;BME280;60991;51.278;22.550;2023-04-30T05:38:57;99012.56;;;12.60;52.02
72855;BME280;60991;51.278;22.550;2023-04-30T05:40:28;99017.38;;;12.68;52.06
72855;BME280;60991;51.278;22.550;2023-04-30T05:41:58;99018.19;;;12.68;52.53
72855;BME280;60991;51.278;22.550;2023-04-30T05:43:28;99015.56;;;12.73;52.10
72855;BME280;60991;51.278;22.550;2023-04-30T05:44:58;99014.22;;;12.81;52.47
72855;BME280;60991;51.278;22.550;2023-04-30T05:46:29;99018.53;;;12.87;52.26
72855;BME280;60991;51.278;22.550;2023-04-30T05:47:59;99014.28;;;12.91;52.09
72855;BME280;60991;51.278;22.550;2023-04-30T05:49:29;99021.75;;;12.99;52.24
72855;BME280;60991;51.278;22.550;2023-04-30T05:50:59;99019.63;;;12.96;52.36
72855;BME280;60991;51.278;22.550;2023-04-30T05:52:30;99026.03;;;13.00;52.54
72855;BME280;60991;51.278;22.550;2023-04-30T05:54:00;99024.44;;;13.04;52.50
72855;BME280;60991;51.278;22.550;2023-04-30T05:55:30;99026.84;;;13.06;52.76
72855;BME280;60991;51.278;22.550;2023-04-30T05:57:01;99018.56;;;13.02;53.41
72855;BME280;60991;51.278;22.550;2023-04-30T05:58:31;99024.19;;;13.06;53.34
72855;BME280;60991;51.278;22.550;2023-04-30T06:00:01;99020.19;;;13.03;53.38
72855;BME280;60991;51.278;22.550;2023-04-30T06:01:31;99020.69;;;12.90;54.67
72855;BME280;60991;51.278;22.550;2023-04-30T06:03:01;99018.03;;;13.00;54.55
72855;BME280;60991;51.278;22.550;2023-04-30T06:04:32;99026.06;;;13.05;54.61
72855;BME280;60991;51.278;22.550;2023-04-30T06:06:03;99024.19;;;13.06;54.92
72855;BME280;60991;51.278;22.550;2023-04-30T06:07:33;99021.03;;;13.14;55.42
72855;BME280;60991;51.278;22.550;2023-04-30T06:09:03;99028.53;;;13.17;55.52
72855;BME280;60991;51.278;22.550;2023-04-30T06:10:34;99029.34;;;13.28;55.70
72855;BME280;60991;51.278;22.550;2023-04-30T06:12:04;99021.88;;;13.25;56.67
72855;BME280;60991;51.278;22.550;2023-04-30T06:13:34;99030.16;;;13.38;56.96
72855;BME280;60991;51.278;22.550;2023-04-30T06:15:05;99027.72;;;13.22;58.94
72855;BME280;60991;51.278;22.550;2023-04-30T06:16:36;99032.78;;;13.23;59.44
72855;BME280;60991;51.278;22.550;2023-04-30T06:18:07;99037.63;;;13.31;58.96
72855;BME280;60991;51.278;22.550;2023-04-30T06:19:37;99034.16;;;13.41;59.01
72855;BME280;60991;51.278;22.550;2023-04-30T06:21:07;99039.44;;;13.21;60.68
72855;BME280;60991;51.278;22.550;2023-04-30T06:22:37;99038.66;;;13.25;60.54
72855;BME280;60991;51.278;22.550;2023-04-30T06:24:08;99042.41;;;13.29;60.76
72855;BME280;60991;51.278;22.550;2023-04-30T06:25:38;99040.81;;;13.33;60.85
72855;BME280;60991;51.278;22.550;2023-04-30T06:27:08;99029.91;;;13.35;61.34
72855;BME280;60991;51.278;22.550;2023-04-30T06:28:38;99030.97;;;13.44;60.92
72855;BME280;60991;51.278;22.550;2023-04-30T06:30:09;99038.97;;;13.49;60.88
72855;BME280;60991;51.278;22.550;2023-04-30T06:31:39;99041.13;;;13.52;60.68
72855;BME280;60991;51.278;22.550;2023-04-30T06:33:09;99044.59;;;13.52;61.43
72855;BME280;60991;51.278;22.550;2023-04-30T06:34:39;99041.66;;;13.64;61.19
72855;BME280;60991;51.278;22.550;2023-04-30T06:36:10;99047.53;;;13.66;61.19
72855;BME280;60991;51.278;22.550;2023-04-30T06:37:40;99047.25;;;13.58;61.28
72855;BME280;60991;51.278;22.550;2023-04-30T06:39:15;99049.66;;;13.54;61.25
72855;BME280;60991;51.278;22.550;2023-04-30T06:40:45;99048.56;;;13.55;61.73
72855;BME280;60991;51.278;22.550;2023-04-30T06:42:16;99051.25;;;13.50;61.46
72855;BME280;60991;51.278;22.550;2023-04-30T06:43:46;99052.84;;;13.46;61.60
72855;BME280;60991;51.278;22.550;2023-04-30T06:45:16;99057.63;;;13.44;62.00
72855;BME280;60991;51.278;22.550;2023-04-30T06:46:46;99057.06;;;13.37;62.68
72855;BME280;60991;51.278;22.550;2023-04-30T06:48:16;99059.44;;;13.23;62.83
72855;BME280;60991;51.278;22.550;2023-04-30T06:49:47;99058.34;;;13.19;63.69
72855;BME280;60991;51.278;22.550;2023-04-30T06:51:17;99058.34;;;13.19;63.83
72855;BME280;60991;51.278;22.550;2023-04-30T06:52:47;99062.16;;;13.33;63.11
72855;BME280;60991;51.278;22.550;2023-04-30T06:54:17;99066.91;;;13.26;64.21
72855;BME280;60991;51.278;22.550;2023-04-30T06:55:48;99058.69;;;13.43;63.95
72855;BME280;60991;51.278;22.550;2023-04-30T06:57:18;99068.28;;;13.44;64.36
72855;BME280;60991;51.278;22.550;2023-04-30T06:58:48;99068.53;;;13.37;64.74
72855;BME280;60991;51.278;22.550;2023-04-30T07:00:18;99065.34;;;13.40;64.93
72855;BME280;60991;51.278;22.550;2023-04-30T07:01:48;99068.34;;;13.54;64.33
72855;BME280;60991;51.278;22.550;2023-04-30T07:03:19;99064.84;;;13.48;65.53
72855;BME280;60991;51.278;22.550;2023-04-30T07:04:49;99069.34;;;13.43;65.81
72855;BME280;60991;51.278;22.550;2023-04-30T07:06:19;99070.13;;;13.38;65.60
72855;BME280;60991;51.278;22.550;2023-04-30T07:07:50;99071.47;;;13.31;65.98
72855;BME280;60991;51.278;22.550;2023-04-30T07:09:20;99071.63;;;13.09;66.58
72855;BME280;60991;51.278;22.550;2023-04-30T07:10:50;99066.81;;;13.06;66.46
72855;BME280;60991;51.278;22.550;2023-04-30T07:12:20;99074.84;;;13.11;67.07
72855;BME280;60991;51.278;22.550;2023-04-30T07:13:50;99081.78;;;13.12;66.84
72855;BME280;60991;51.278;22.550;2023-04-30T07:15:21;99081.06;;;13.27;66.23
72855;BME280;60991;51.278;22.550;2023-04-30T07:16:51;99074.13;;;13.31;66.16
72855;BME280;60991;51.278;22.550;2023-04-30T07:18:22;99082.66;;;13.28;66.45
72855;BME280;60991;51.278;22.550;2023-04-30T07:19:52;99081.34;;;13.30;66.15
72855;BME280;60991;51.278;22.550;2023-04-30T07:21:22;99074.91;;;13.21;66.61
72855;BME280;60991;51.278;22.550;2023-04-30T07:22:52;99085.81;;;13.20;66.50
72855;BME280;60991;51.278;22.550;2023-04-30T07:24:22;99077.06;;;13.29;66.34
72855;BME280;60991;51.278;22.550;2023-04-30T07:25:53;99083.44;;;13.23;66.85
72855;BME280;60991;51.278;22.550;2023-04-30T07:27:23;99090.53;;;13.07;67.59
72855;BME280;60991;51.278;22.550;2023-04-30T07:28:53;99088.34;;;12.89;68.12
72855;BME280;60991;51.278;22.550;2023-04-30T07:30:24;99093.16;;;12.92;67.60
72855;BME280;60991;51.278;22.550;2023-04-30T07:31:54;99096.84;;;12.86;68.52
72855;BME280;60991;51.278;22.550;2023-04-30T07:33:24;99094.94;;;12.81;68.62
72855;BME280;60991;51.278;22.550;2023-04-30T07:34:55;99093.88;;;12.77;68.25
72855;BME280;60991;51.278;22.550;2023-04-30T07:36:25;99105.09;;;12.84;68.49
72855;BME280;60991;51.278;22.550;2023-04-30T07:37:56;99102.19;;;12.91;68.12
72855;BME280;60991;51.278;22.550;2023-04-30T07:39:26;99098.22;;;12.94;68.38
72855;BME280;60991;51.278;22.550;2023-04-30T07:40:56;99107.78;;;12.90;68.81
72855;BME280;60991;51.278;22.550;2023-04-30T07:42:26;99100.63;;;12.95;69.05
72855;BME280;60991;51.278;22.550;2023-04-30T07:43:56;99108.03;;;12.88;69.17
72855;BME280;60991;51.278;22.550;2023-04-30T07:45:27;99099.81;;;12.95;69.17
72855;BME280;60991;51.278;22.550;2023-04-30T07:46:57;99103.03;;;12.97;69.14
72855;BME280;60991;51.278;22.550;2023-04-30T07:48:27;99103.78;;;12.87;69.57
72855;BME280;60991;51.278;22.550;2023-04-30T07:49:57;99108.22;;;12.71;70.52
72855;BME280;60991;51.278;22.550;2023-04-30T07:51:28;99107.63;;;12.59;71.68
72855;BME280;60991;51.278;22.550;2023-04-30T07:52:59;99120.94;;;12.59;71.67
72855;BME280;60991;51.278;22.550;2023-04-30T07:54:29;99115.06;;;12.57;72.46
72855;BME280;60991;51.278;22.550;2023-04-30T07:56:00;99120.34;;;12.52;73.23
72855;BME280;60991;51.278;22.550;2023-04-30T07:57:30;99125.88;;;12.45;73.94
72855;BME280;60991;51.278;22.550;2023-04-30T07:59:00;99122.97;;;12.42;74.26
72855;BME280;60991;51.278;22.550;2023-04-30T08:00:30;99127.97;;;12.38;75.19
72855;BME280;60991;51.278;22.550;2023-04-30T08:02:00;99117.50;;;12.27;75.94
72855;BME280;60991;51.278;22.550;2023-04-30T08:03:31;99125.47;;;12.22;76.20
72855;BME280;60991;51.278;22.550;2023-04-30T08:05:01;99127.34;;;12.26;75.96
72855;BME280;60991;51.278;22.550;2023-04-30T08:06:31;99130.13;;;12.09;76.68